createdAt,value
2017-04-20T16:59:23.791Z,3.40
2017-04-20T17:00:22.903Z,3.24
2017-04-20T17:25:17.394Z,3.67
2017-04-20T17:32:50.138Z,3.18
2017-04-20T17:56:26.327Z,18.43
2017-04-20T17:57:25.439Z,18.60
2017-04-20T18:09:44.225Z,19.43
2017-04-20T18:10:43.371Z,19.32
2017-04-20T18:11:42.500Z,19.42
2017-04-20T18:18:10.978Z,20.95
2017-04-20T18:19:10.142Z,20.83
2017-04-20T18:20:09.350Z,20.92
2017-04-20T18:21:08.486Z,20.58
2017-04-20T18:22:07.606Z,21.37
2017-04-20T18:23:06.710Z,20.70
2017-04-20T18:24:05.871Z,19.83
2017-04-20T18:25:05.019Z,19.55
2017-04-20T18:26:04.191Z,20.60
2017-04-20T18:27:03.327Z,19.08
2017-04-20T18:28:02.446Z,19.87
2017-04-20T18:29:01.586Z,21.07
2017-04-20T18:30:00.714Z,20.75
2017-04-20T18:30:59.831Z,20.12
2017-04-20T18:31:58.959Z,20.10
2017-04-20T18:32:58.074Z,18.80
2017-04-20T18:33:57.185Z,18.90
2017-04-20T18:34:56.322Z,20.67
2017-04-20T18:35:55.483Z,19.25
2017-04-20T18:36:54.594Z,20.38
2017-04-20T18:37:53.747Z,18.02
2017-04-20T18:38:52.875Z,21.28
2017-04-20T18:39:51.983Z,21.55
2017-04-20T18:40:51.918Z,21.73
2017-04-20T18:41:51.018Z,21.15
2017-04-20T18:42:50.294Z,19.63
2017-04-20T18:43:49.390Z,17.97
2017-04-20T18:44:48.530Z,19.62
2017-04-20T18:45:47.650Z,19.12
2017-04-20T18:46:46.794Z,19.67
2017-04-20T18:47:46.051Z,21.28
2017-04-20T18:48:45.919Z,19.38
2017-04-20T18:49:45.059Z,20.43
2017-04-20T18:50:44.318Z,19.47
2017-04-20T18:51:44.183Z,19.85
2017-04-20T18:52:43.330Z,19.02
2017-04-20T18:53:42.521Z,20.68
2017-04-20T18:54:41.723Z,21.20
2017-04-20T18:55:41.618Z,19.93
2017-04-20T18:56:40.726Z,20.53
2017-04-20T18:57:39.955Z,20.00
2017-04-20T18:58:39.054Z,18.22
2017-04-20T18:59:38.167Z,21.62
2017-04-20T19:00:37.318Z,22.00
2017-04-20T19:01:36.426Z,20.12
2017-04-20T19:02:35.578Z,21.17
2017-04-20T19:03:35.578Z,20.40
2017-04-20T19:04:34.679Z,22.62
2017-04-20T19:05:33.786Z,19.82
2017-04-20T19:06:33.670Z,19.12
2017-04-20T19:07:32.774Z,18.75
2017-04-20T19:08:31.919Z,20.58
2017-04-20T19:09:31.058Z,20.87
2017-04-20T19:10:30.166Z,20.15
2017-04-20T19:11:29.271Z,23.10
2017-04-20T19:12:29.145Z,20.45
2017-04-20T19:13:28.243Z,19.65
2017-04-20T19:14:27.358Z,20.25
2017-04-20T19:15:26.852Z,21.83
2017-04-20T19:16:25.962Z,20.53
2017-04-20T19:17:25.082Z,21.38
2017-04-20T19:18:24.195Z,19.70
2017-04-20T19:19:23.398Z,21.83
2017-04-20T19:20:22.546Z,21.45
2017-04-20T19:21:21.642Z,21.03
2017-04-20T19:22:20.774Z,23.45
2017-04-20T19:23:19.898Z,21.53
2017-04-20T19:24:19.039Z,21.98
2017-04-20T19:25:18.874Z,20.50
2017-04-20T19:26:18.014Z,22.98
2017-04-20T19:27:17.138Z,20.72
2017-04-20T19:28:16.322Z,21.63
2017-04-20T19:29:15.471Z,22.15
2017-04-20T19:30:14.638Z,21.00
2017-04-20T19:31:14.572Z,21.32
2017-04-20T19:32:13.754Z,22.38
2017-04-20T19:33:12.916Z,21.33
2017-04-20T19:34:12.870Z,22.93
2017-04-20T19:35:12.011Z,21.52
2017-04-20T19:36:11.180Z,21.95
2017-04-20T19:37:10.282Z,21.53
2017-04-20T19:38:09.459Z,21.85
2017-04-20T19:39:08.887Z,21.13
2017-04-20T19:40:08.001Z,21.48
2017-04-20T19:41:07.111Z,20.17
2017-04-20T19:42:06.254Z,21.42
2017-04-20T19:43:05.398Z,22.97
2017-04-20T19:44:04.506Z,21.55
2017-04-20T19:45:03.662Z,23.05
2017-04-20T19:46:02.775Z,22.82
2017-04-20T19:47:01.898Z,23.15
2017-04-20T19:48:01.058Z,22.30
2017-04-20T19:49:00.194Z,23.25
2017-04-20T19:49:59.379Z,21.38
2017-04-20T19:50:58.472Z,22.52
2017-04-20T19:51:57.554Z,22.90
2017-04-20T19:52:56.738Z,22.47
2017-04-20T19:53:55.854Z,21.78
2017-04-20T19:54:54.994Z,23.60
2017-04-20T19:55:54.098Z,22.22
2017-04-20T19:56:53.232Z,22.22
2017-04-20T19:57:52.311Z,22.72
2017-04-20T19:58:51.406Z,22.68
2017-04-20T19:59:50.491Z,23.20
2017-04-20T20:00:49.666Z,24.97
2017-04-20T20:01:48.814Z,22.23
2017-04-20T20:02:48.714Z,22.53
2017-04-20T20:03:47.866Z,22.88
2017-04-20T20:04:46.995Z,21.68
2017-04-20T20:05:46.144Z,22.43
2017-04-20T20:06:45.508Z,23.45
2017-04-20T20:07:44.663Z,24.22
2017-04-20T20:08:44.556Z,23.75
2017-04-20T20:09:43.719Z,24.33
2017-04-20T20:10:42.900Z,23.75
2017-04-20T20:11:42.787Z,23.87
2017-04-20T20:12:41.987Z,22.42
2017-04-20T20:13:41.114Z,23.52
2017-04-20T20:14:40.393Z,26.55
2017-04-20T20:15:39.875Z,25.75
2017-04-20T20:16:38.982Z,26.12
2017-04-20T20:17:38.087Z,24.85
2017-04-20T20:18:37.194Z,27.68
2017-04-20T20:19:36.358Z,26.35
2017-04-20T20:20:35.498Z,26.45
2017-04-20T20:21:34.914Z,27.53
2017-04-20T20:22:34.099Z,27.10
2017-04-20T20:23:33.258Z,26.73
2017-04-20T20:24:32.383Z,25.83
2017-04-20T20:25:31.519Z,28.07
2017-04-20T20:26:30.646Z,25.62
2017-04-20T20:27:29.753Z,27.40
2017-04-20T20:28:28.890Z,27.85
2017-04-20T20:29:27.978Z,27.52
2017-04-20T20:30:27.130Z,28.35
2017-04-20T20:31:26.266Z,25.78
2017-04-20T20:32:25.395Z,26.38
2017-04-20T20:33:24.518Z,27.77
2017-04-20T20:34:23.683Z,26.90
2017-04-20T20:35:23.597Z,26.23
2017-04-20T20:36:22.734Z,25.70
2017-04-20T20:37:21.882Z,26.20
2017-04-20T20:38:20.995Z,26.95
2017-04-20T20:39:20.085Z,25.45
2017-04-20T20:40:19.247Z,23.87
2017-04-20T20:41:18.394Z,26.57
2017-04-20T20:42:17.543Z,26.02
2017-04-20T20:43:16.723Z,26.87
2017-04-20T20:44:15.914Z,25.40
2017-04-20T20:45:15.883Z,25.32
2017-04-20T20:46:15.015Z,25.77
2017-04-20T20:47:14.194Z,26.77
2017-04-20T20:48:13.431Z,27.62
2017-04-20T20:49:12.601Z,25.45
2017-04-20T20:50:13.222Z,28.23
2017-04-20T20:51:13.394Z,27.57
2017-04-20T20:52:12.520Z,28.45
2017-04-20T20:53:11.668Z,28.10
2017-04-20T20:54:10.794Z,28.73
2017-04-20T20:55:09.930Z,29.02
2017-04-20T20:56:09.047Z,31.50
2017-04-20T20:57:08.183Z,26.28
2017-04-20T20:58:07.294Z,27.43
2017-04-20T20:59:06.455Z,27.87
2017-04-20T21:00:05.563Z,28.98
2017-04-20T21:01:04.966Z,29.42
2017-04-20T21:02:04.112Z,26.33
2017-04-20T21:03:03.226Z,27.77
2017-04-20T21:04:02.374Z,30.08
2017-04-20T21:05:01.511Z,26.83
2017-04-20T21:06:00.639Z,27.10
2017-04-20T21:06:59.798Z,26.75
2017-04-20T21:07:58.910Z,25.62
2017-04-20T21:08:58.067Z,28.92
2017-04-20T21:09:57.214Z,28.20
2017-04-20T21:10:56.391Z,26.30
2017-04-20T21:11:55.499Z,29.42
2017-04-20T21:12:54.626Z,28.82
2017-04-20T21:13:53.738Z,28.28
2017-04-20T21:14:52.878Z,28.07
2017-04-20T21:15:52.066Z,30.12
2017-04-20T21:16:51.182Z,29.03
2017-04-20T21:17:50.299Z,30.12
2017-04-20T21:18:50.410Z,28.90
2017-04-20T21:19:49.907Z,28.35
2017-04-20T21:20:48.994Z,30.95
2017-04-20T21:21:48.134Z,29.43
2017-04-20T21:22:47.279Z,30.33
2017-04-20T21:23:47.134Z,31.58
2017-04-20T21:24:46.254Z,29.37
2017-04-20T21:25:45.370Z,29.15
2017-04-20T21:26:44.595Z,27.47
2017-04-20T21:27:44.514Z,28.47
2017-04-20T21:28:44.419Z,29.87
2017-04-20T21:29:43.594Z,27.97
2017-04-20T21:30:43.509Z,28.60
2017-04-20T21:31:42.631Z,27.15
2017-04-20T21:32:41.807Z,26.57
2017-04-20T21:33:40.922Z,28.15
2017-04-20T21:34:40.015Z,29.93
2017-04-20T21:35:39.175Z,28.75
2017-04-20T21:36:38.310Z,27.88
2017-04-20T21:37:37.406Z,27.68
2017-04-20T21:38:36.494Z,27.23
2017-04-20T21:39:35.622Z,29.65
2017-04-20T21:40:34.743Z,27.82
2017-04-20T21:41:33.854Z,26.78
2017-04-20T21:42:33.038Z,29.55
2017-04-20T21:43:32.155Z,29.85
2017-04-20T21:44:31.366Z,28.38
2017-04-20T21:45:30.495Z,27.48
2017-04-20T21:46:30.357Z,27.47
2017-04-20T21:47:29.487Z,27.52
2017-04-20T21:48:28.674Z,29.13
2017-04-20T21:49:27.786Z,27.52
2017-04-20T21:50:26.870Z,28.70
2017-04-20T21:51:25.995Z,28.45
2017-04-20T21:52:25.106Z,27.82
2017-04-20T21:53:24.491Z,29.65
2017-04-20T21:54:23.607Z,29.27
2017-04-20T21:55:22.735Z,29.20
2017-04-20T21:56:21.850Z,26.33
2017-04-20T21:57:20.953Z,27.32
2017-04-20T21:58:20.054Z,27.40
2017-04-20T21:59:19.190Z,25.62
2017-04-20T22:00:18.410Z,25.83
2017-04-20T22:01:17.554Z,26.07
2017-04-20T22:02:16.738Z,26.95
2017-04-20T22:03:15.867Z,27.03
2017-04-20T22:04:15.047Z,28.93
2017-04-20T22:05:14.304Z,29.02
2017-04-20T22:06:14.314Z,26.72
2017-04-20T22:07:13.532Z,28.75
2017-04-20T22:08:12.684Z,26.80
2017-04-20T22:09:11.891Z,26.82
2017-04-20T22:10:11.043Z,26.30
2017-04-20T22:11:10.195Z,27.05
2017-04-20T22:12:09.358Z,27.10
2017-04-20T22:13:08.502Z,27.23
2017-04-20T22:14:08.370Z,27.85
2017-04-20T22:15:07.520Z,28.45
2017-04-20T22:16:06.782Z,28.57
2017-04-20T22:17:05.894Z,27.25
2017-04-20T22:18:05.000Z,28.60
2017-04-20T22:19:04.110Z,27.12
2017-04-20T22:20:03.963Z,27.40
2017-04-20T22:21:03.095Z,27.02
2017-04-20T22:22:02.254Z,26.82
2017-04-20T22:23:02.210Z,27.27
2017-04-20T22:24:01.410Z,28.20
2017-04-20T22:25:00.538Z,27.13
2017-04-20T22:25:59.666Z,26.90
2017-04-20T22:26:58.796Z,26.72
2017-04-20T22:27:57.910Z,28.13
2017-04-20T22:28:57.010Z,25.77
2017-04-20T22:29:56.187Z,26.53
2017-04-20T22:30:55.294Z,27.20
2017-04-20T22:31:54.451Z,26.48
2017-04-20T22:32:53.582Z,30.15
2017-04-20T22:33:52.718Z,27.43
2017-04-20T22:34:51.879Z,25.63
2017-04-20T22:35:51.007Z,27.80
2017-04-20T22:36:50.119Z,28.62
2017-04-20T22:37:49.225Z,27.80
2017-04-20T22:38:48.326Z,29.67
2017-04-20T22:39:47.491Z,27.53
2017-04-20T22:40:46.626Z,27.92
2017-04-20T22:41:45.751Z,26.58
2017-04-20T22:42:44.939Z,28.88
2017-04-20T22:43:44.121Z,28.60
2017-04-20T22:44:43.304Z,28.62
2017-04-20T22:45:42.798Z,29.20
2017-04-20T22:46:41.974Z,28.10
2017-04-20T22:47:41.142Z,30.97
2017-04-20T22:48:40.278Z,28.77
2017-04-20T22:49:39.398Z,30.37
2017-04-20T22:50:38.550Z,29.50
2017-04-20T22:51:37.686Z,29.37
2017-04-20T22:52:36.842Z,30.12
2017-04-20T22:53:35.970Z,29.33
2017-04-20T22:54:35.809Z,27.87
2017-04-20T22:55:34.943Z,26.82
2017-04-20T22:56:34.210Z,27.02
2017-04-20T22:57:33.358Z,27.72
2017-04-20T22:58:32.553Z,27.58
2017-04-20T22:59:31.702Z,28.30
2017-04-20T23:00:30.815Z,28.15
2017-04-20T23:01:30.766Z,28.27
2017-04-20T23:02:30.010Z,29.57
2017-04-20T23:03:29.094Z,27.48
2017-04-20T23:04:28.207Z,28.43
2017-04-20T23:05:27.311Z,30.42
2017-04-20T23:06:26.443Z,29.82
2017-04-20T23:07:25.620Z,30.98
2017-04-20T23:08:24.746Z,29.12
2017-04-20T23:09:23.870Z,28.95
2017-04-20T23:10:22.983Z,29.52
2017-04-20T23:11:22.322Z,31.45
2017-04-20T23:12:21.431Z,30.25
2017-04-20T23:13:20.627Z,28.87
2017-04-20T23:14:19.738Z,30.60
2017-04-20T23:15:18.878Z,30.55
2017-04-20T23:16:18.018Z,30.15
2017-04-20T23:17:17.882Z,29.50
2017-04-20T23:18:17.043Z,33.00
2017-04-20T23:19:16.925Z,30.35
2017-04-20T23:20:16.108Z,29.12
2017-04-20T23:21:15.419Z,28.88
2017-04-20T23:22:14.586Z,30.78
2017-04-20T23:23:14.513Z,30.22
2017-04-20T23:24:13.723Z,30.03
2017-04-20T23:25:12.946Z,27.75
2017-04-20T23:26:12.103Z,29.28
2017-04-20T23:27:11.220Z,29.82
2017-04-20T23:28:10.362Z,29.80
2017-04-20T23:29:09.537Z,28.97
2017-04-20T23:30:08.630Z,29.63
2017-04-20T23:31:07.749Z,30.22
2017-04-20T23:32:06.871Z,28.00
2017-04-20T23:33:06.010Z,29.00
2017-04-20T23:34:05.106Z,29.22
2017-04-20T23:35:04.553Z,30.95
2017-04-20T23:36:03.687Z,31.22
2017-04-20T23:37:02.831Z,29.35
2017-04-20T23:38:01.938Z,29.55
2017-04-20T23:39:01.125Z,29.88
2017-04-20T23:40:00.302Z,31.17
2017-04-20T23:40:59.391Z,30.17
2017-04-20T23:41:58.490Z,31.07
2017-04-20T23:42:57.590Z,29.00
2017-04-20T23:43:56.706Z,27.78
2017-04-20T23:44:55.827Z,29.70
2017-04-20T23:45:54.999Z,30.45
2017-04-20T23:46:54.098Z,29.72
2017-04-20T23:47:53.250Z,31.77
2017-04-20T23:48:52.363Z,29.07
2017-04-20T23:49:51.466Z,30.53
2017-04-20T23:50:50.601Z,29.57
2017-04-20T23:51:49.754Z,29.55
2017-04-20T23:52:48.871Z,30.35
2017-04-20T23:53:48.022Z,26.93
2017-04-20T23:54:47.138Z,30.33
2017-04-20T23:55:46.309Z,29.88
2017-04-20T23:56:45.508Z,28.12
2017-04-20T23:57:44.619Z,29.20
2017-04-20T23:58:43.772Z,28.58
2017-04-20T23:59:43.064Z,29.10
